Time;durP1;ratioP1;P1;durP2;ratioP2;P2;SDS_P1;SDS_P2;PMS_P1;PMS_P2;Temp;Humidity;BMP_temperature;BMP_pressure;BME280_temperature;BME280_humidity;BME280_pressure;Samples;Min_cycle;Max_cycle;Signal;HPM_P1;HPM_P2
2023/09/22 00:00:49;;;;;;;;;;;;;;;8.43;69.67;94060.59;4916941;29;19967;-71
2023/09/22 00:03:14;;;;;;;;;;;;;;;10.19;65.04;94047.75;4917567;29;20707;-71
2023/09/22 00:05:39;;;;;;;;;;;;;;;9.62;66.97;94063.53;4919378;29;20384;-71
2023/09/22 00:08:05;;;;;;;;;;;;;;;9.88;64.58;94067.94;4915370;29;19995;-71
2023/09/22 00:10:30;;;;;;;;;;;;;;;9.41;67.28;94066.25;4921793;29;20013;-71
2023/09/22 00:12:55;;;;;;;;;;;;;;;9.25;67.57;94062.19;4913292;29;19971;-71
2023/09/22 00:15:21;;;;;;;;;;;;;;;10.42;63.37;94059.69;4917345;29;20764;-71
2023/09/22 00:17:46;;;;;;;;;;;;;;;10.00;64.02;94070.75;4921026;29;20024;-71
2023/09/22 00:20:14;;;;;;;;;;;;;;;10.52;63.00;94069.03;4924322;28;20322;-71
2023/09/22 00:22:40;;;;;;;;;;;;;;;10.17;63.95;94104.84;4922168;29;19965;-71
2023/09/22 00:25:05;;;;;;;;;;;;;;;9.41;64.99;94074.22;4926442;28;19964;-71
2023/09/22 00:27:31;;;;;;;;;;;;;;;8.64;67.83;94086.09;4924520;28;20094;-71
2023/09/22 00:29:56;;;;;;;;;;;;;;;8.95;68.31;94099.84;4949911;28;20014;-71
2023/09/22 00:32:21;;;;;;;;;;;;;;;9.20;66.33;94083.25;4955391;28;20155;-71
2023/09/22 00:34:47;;;;;;;;;;;;;;;9.11;67.90;94079.19;4965496;28;19941;-71
2023/09/22 00:37:12;;;;;;;;;;;;;;;8.57;69.24;94080.81;4953373;28;20014;-71
2023/09/22 00:39:37;;;;;;;;;;;;;;;9.57;65.18;94069.47;4964378;28;20353;-71
2023/09/22 00:42:08;;;;;;;;;;;;;;;10.04;63.43;94056.00;4966158;28;19962;-71
2023/09/22 00:44:33;;;;;;;;;;;;;;;10.31;61.71;94063.84;4958804;28;19963;-71
2023/09/22 00:46:58;;;;;;;;;;;;;;;9.72;63.63;94063.91;4963315;28;20233;-71
2023/09/22 00:49:24;;;;;;;;;;;;;;;10.15;62.36;94059.03;4975054;28;20030;-71
2023/09/22 00:51:49;;;;;;;;;;;;;;;10.28;62.45;94066.94;4962280;28;20315;-71
2023/09/22 00:54:15;;;;;;;;;;;;;;;9.96;62.76;94078.31;4965935;28;20209;-71
2023/09/22 00:56:40;;;;;;;;;;;;;;;10.29;62.76;94081.03;4958426;28;20050;-71
2023/09/22 00:59:07;;;;;;;;;;;;;;;10.32;62.61;94084.09;4967426;28;20373;-71
2023/09/22 01:01:32;;;;;;;;;;;;;;;10.67;61.73;94093.47;4957133;28;19971;-73
2023/09/22 01:03:58;;;;;;;;;;;;;;;10.49;61.16;94107.50;4963677;28;19938;-72
2023/09/22 01:06:23;;;;;;;;;;;;;;;10.42;61.33;94109.41;4955175;28;19985;-73
2023/09/22 01:08:48;;;;;;;;;;;;;;;10.58;61.16;94122.19;4969197;28;19963;-73
2023/09/22 01:11:13;;;;;;;;;;;;;;;10.50;60.60;94114.47;4955386;28;19950;-72
2023/09/22 01:13:39;;;;;;;;;;;;;;;10.86;60.31;94110.34;4973140;28;19979;-73
2023/09/22 01:16:04;;;;;;;;;;;;;;;10.12;61.36;94123.25;4959616;28;20168;-72
2023/09/22 01:18:29;;;;;;;;;;;;;;;9.23;62.59;94127.16;4957460;28;20036;-73
2023/09/22 01:20:58;;;;;;;;;;;;;;;9.91;61.96;94138.44;4952914;28;20401;-72
2023/09/22 01:23:23;;;;;;;;;;;;;;;10.29;60.09;94121.75;4954753;28;19955;-72
2023/09/22 01:25:48;;;;;;;;;;;;;;;10.57;57.88;94122.44;4944542;28;19962;-72
2023/09/22 01:28:14;;;;;;;;;;;;;;;10.60;59.08;94109.50;4953898;28;19970;-73
2023/09/22 01:30:40;;;;;;;;;;;;;;;10.15;59.54;94106.88;4949117;28;19957;-72
2023/09/22 01:33:05;;;;;;;;;;;;;;;10.45;59.05;94111.63;4951386;28;19993;-73
2023/09/22 01:35:33;;;;;;;;;;;;;;;10.50;58.65;94114.47;4953910;28;19956;-72
2023/09/22 01:38:08;;;;;;;;;;;;;;;9.36;60.78;94105.91;4953740;28;19970;-72
2023/09/22 01:40:33;;;;;;;;;;;;;;;10.15;59.65;94102.41;4951698;28;20052;-72
2023/09/22 01:42:58;;;;;;;;;;;;;;;10.28;58.75;94085.56;4956048;28;19942;-72
2023/09/22 01:45:23;;;;;;;;;;;;;;;9.63;59.91;94110.34;4955175;28;20332;-72
2023/09/22 01:47:49;;;;;;;;;;;;;;;9.33;61.54;94112.47;4953814;28;19950;-72
2023/09/22 01:50:15;;;;;;;;;;;;;;;9.57;61.79;94102.19;4956242;28;20257;-72
2023/09/22 01:52:40;;;;;;;;;;;;;;;10.21;59.02;94101.53;4951253;28;19957;-72
2023/09/22 01:55:05;;;;;;;;;;;;;;;9.27;62.01;94113.28;4955468;28;20035;-72
2023/09/22 01:57:31;;;;;;;;;;;;;;;10.28;59.44;94090.03;4953841;28;19969;-72
2023/09/22 01:59:56;;;;;;;;;;;;;;;10.71;57.73;94093.88;4955398;28;19976;-72
2023/09/22 02:02:21;;;;;;;;;;;;;;;8.89;62.03;94095.31;4957981;28;20348;-72
2023/09/22 02:04:47;;;;;;;;;;;;;;;9.67;61.04;94100.91;4955860;28;19996;-72
2023/09/22 02:07:12;;;;;;;;;;;;;;;10.03;59.74;94099.53;4957633;28;20068;-72
2023/09/22 02:09:37;;;;;;;;;;;;;;;8.75;62.39;94116.53;4956387;28;20406;-72
2023/09/22 02:12:03;;;;;;;;;;;;;;;9.13;62.32;94122.28;4961326;28;19949;-71
2023/09/22 02:14:28;;;;;;;;;;;;;;;9.51;61.00;94113.63;4957144;28;20337;-72
2023/09/22 02:16:54;;;;;;;;;;;;;;;9.84;59.49;94102.09;4952315;28;20003;-72
2023/09/22 02:19:19;;;;;;;;;;;;;;;9.87;59.47;94116.81;4959008;28;20056;-72
2023/09/22 02:21:45;;;;;;;;;;;;;;;10.13;58.55;94099.13;4953091;28;20027;-72
2023/09/22 02:24:10;;;;;;;;;;;;;;;9.83;58.58;94103.09;4955825;28;20001;-73
2023/09/22 02:26:36;;;;;;;;;;;;;;;10.02;58.61;94113.88;4946200;28;19958;-72
2023/09/22 02:29:01;;;;;;;;;;;;;;;9.24;60.23;94116.34;4954615;28;20159;-72
2023/09/22 02:31:27;;;;;;;;;;;;;;;9.64;59.55;94122.59;4960644;28;20480;-72
2023/09/22 02:33:53;;;;;;;;;;;;;;;9.50;59.84;94121.81;4956743;28;19974;-72
2023/09/22 02:36:18;;;;;;;;;;;;;;;9.32;59.75;94118.78;4952611;28;20015;-72
2023/09/22 02:38:43;;;;;;;;;;;;;;;8.81;61.11;94114.91;4936092;28;20371;-72
2023/09/22 02:41:09;;;;;;;;;;;;;;;9.19;60.59;94114.28;4947180;28;20385;-72
2023/09/22 02:43:35;;;;;;;;;;;;;;;9.45;59.48;94119.75;4965608;28;19956;-72
2023/09/22 02:46:03;;;;;;;;;;;;;;;8.76;62.02;94117.34;4964594;28;19975;-71
2023/09/22 02:48:28;;;;;;;;;;;;;;;9.47;59.52;94117.72;4964969;28;20371;-72
2023/09/22 02:50:54;;;;;;;;;;;;;;;9.56;59.54;94121.00;4961924;28;19946;-72
2023/09/22 02:53:19;;;;;;;;;;;;;;;8.61;60.77;94122.84;4957439;28;20439;-72
2023/09/22 02:55:44;;;;;;;;;;;;;;;9.04;59.56;94111.88;4952922;28;20044;-72
2023/09/22 02:58:09;;;;;;;;;;;;;;;8.34;61.76;94104.25;4969935;28;19980;-72
2023/09/22 03:00:35;;;;;;;;;;;;;;;9.21;59.71;94100.81;4959045;28;20010;-72
2023/09/22 03:03:00;;;;;;;;;;;;;;;8.76;61.03;94114.69;4940250;28;20401;-72
2023/09/22 03:05:26;;;;;;;;;;;;;;;9.77;57.58;94111.09;4932272;28;19969;-72
2023/09/22 03:07:52;;;;;;;;;;;;;;;9.89;57.53;94116.59;4918420;28;20529;-72
2023/09/22 03:10:17;;;;;;;;;;;;;;;10.22;56.24;94099.69;4968184;28;20073;-72
2023/09/22 03:12:42;;;;;;;;;;;;;;;10.21;56.25;94111.38;4964924;28;19973;-73
2023/09/22 03:15:11;;;;;;;;;;;;;;;10.06;56.34;94112.44;4967731;28;20426;-72
2023/09/22 03:17:37;;;;;;;;;;;;;;;9.69;56.46;94117.47;4956644;28;20511;-73
2023/09/22 03:20:03;;;;;;;;;;;;;;;10.16;57.16;94113.84;4958215;28;19982;-72
2023/09/22 03:22:28;;;;;;;;;;;;;;;10.06;55.74;94114.28;4958924;28;20360;-71
2023/09/22 03:24:53;;;;;;;;;;;;;;;9.02;57.95;94113.09;4957004;28;19998;-71
2023/09/22 03:27:19;;;;;;;;;;;;;;;10.04;55.96;94113.66;4956130;28;19961;-71
2023/09/22 03:29:45;;;;;;;;;;;;;;;10.16;55.48;94116.50;4957342;28;19973;-71
2023/09/22 03:32:10;;;;;;;;;;;;;;;10.36;54.81;94106.56;4953378;28;20039;-71
2023/09/22 03:34:35;;;;;;;;;;;;;;;10.04;55.63;94122.47;4940830;28;20003;-71
2023/09/22 03:37:00;;;;;;;;;;;;;;;9.91;55.72;94143.78;4935774;28;19970;-71
2023/09/22 03:39:27;;;;;;;;;;;;;;;9.92;56.18;94154.19;4943427;28;19997;-71
2023/09/22 03:41:54;;;;;;;;;;;;;;;8.91;58.49;94154.31;4940763;28;20484;-71
2023/09/22 03:44:19;;;;;;;;;;;;;;;9.31;58.49;94145.53;4939383;28;19977;-71
2023/09/22 03:46:45;;;;;;;;;;;;;;;9.23;57.64;94135.97;4940383;28;19966;-71
2023/09/22 03:49:10;;;;;;;;;;;;;;;9.64;57.72;94123.41;4941384;28;19977;-71
2023/09/22 03:51:35;;;;;;;;;;;;;;;10.05;56.03;94118.81;4936550;28;20617;-71
2023/09/22 03:54:00;;;;;;;;;;;;;;;9.76;56.38;94118.25;4947614;28;20432;-71
2023/09/22 03:56:26;;;;;;;;;;;;;;;8.94;58.37;94104.28;4941090;28;20060;-71
2023/09/22 03:58:51;;;;;;;;;;;;;;;9.57;57.10;94118.13;4941033;28;19959;-71
2023/09/22 04:01:16;;;;;;;;;;;;;;;8.45;59.91;94116.91;4938529;28;20146;-71
2023/09/22 04:03:41;;;;;;;;;;;;;;;8.77;59.56;94122.44;4947029;28;19957;-71
2023/09/22 04:06:07;;;;;;;;;;;;;;;9.41;58.00;94124.69;4936092;28;20443;-71
2023/09/22 04:08:32;;;;;;;;;;;;;;;9.32;57.13;94118.78;4947129;28;19980;-71
2023/09/22 04:10:57;;;;;;;;;;;;;;;8.96;58.71;94122.69;4939808;28;19952;-71
2023/09/22 04:13:24;;;;;;;;;;;;;;;9.37;57.79;94133.28;4941872;28;20014;-71
2023/09/22 04:15:58;;;;;;;;;;;;;;;9.40;57.10;94132.88;4942978;28;19981;-71
2023/09/22 04:18:23;;;;;;;;;;;;;;;9.46;57.09;94134.69;4918736;29;20138;-71
2023/09/22 04:20:51;;;;;;;;;;;;;;;9.66;56.92;94139.94;4918571;29;20381;-71
2023/09/22 04:23:17;;;;;;;;;;;;;;;10.05;56.28;94142.72;4919182;28;20385;-71
2023/09/22 04:25:42;;;;;;;;;;;;;;;9.55;57.32;94148.56;4916532;29;19983;-71
2023/09/22 04:28:09;;;;;;;;;;;;;;;9.95;56.14;94153.78;4926790;28;20029;-71
2023/09/22 04:30:38;;;;;;;;;;;;;;;10.17;55.24;94158.03;4917349;29;19979;-71
2023/09/22 04:33:04;;;;;;;;;;;;;;;10.31;55.20;94156.13;4914243;29;20117;-71
2023/09/22 04:35:32;;;;;;;;;;;;;;;10.06;55.10;94160.31;4917144;29;19995;-71
2023/09/22 04:37:57;;;;;;;;;;;;;;;9.92;55.61;94158.69;4921754;29;20340;-71
2023/09/22 04:40:24;;;;;;;;;;;;;;;9.90;56.40;94148.28;4917907;28;20010;-71
2023/09/22 04:42:53;;;;;;;;;;;;;;;10.17;56.14;94144.72;4920180;29;20003;-71
2023/09/22 04:45:18;;;;;;;;;;;;;;;9.30;56.62;94154.53;4916387;29;20073;-71
2023/09/22 04:47:46;;;;;;;;;;;;;;;9.12;58.05;94161.31;4916291;29;20249;-71
2023/09/22 04:50:15;;;;;;;;;;;;;;;9.53;57.66;94162.06;4921433;29;20506;-71
2023/09/22 04:52:40;;;;;;;;;;;;;;;8.69;58.82;94175.72;4928019;28;20073;-71
2023/09/22 04:55:06;;;;;;;;;;;;;;;9.59;58.29;94185.16;4961801;28;20682;-71
2023/09/22 04:57:31;;;;;;;;;;;;;;;9.61;56.17;94184.94;4952773;28;20197;-71
2023/09/22 04:59:56;;;;;;;;;;;;;;;9.90;56.43;94184.69;4962672;28;20431;-71
2023/09/22 05:02:21;;;;;;;;;;;;;;;9.04;57.28;94178.22;4955718;28;19972;-71
2023/09/22 05:04:47;;;;;;;;;;;;;;;9.68;57.62;94177.78;4958654;28;20011;-71
2023/09/22 05:07:13;;;;;;;;;;;;;;;9.97;56.13;94178.31;4953320;28;19947;-71
2023/09/22 05:09:39;;;;;;;;;;;;;;;9.59;57.76;94173.72;4959550;28;20223;-71
2023/09/22 05:12:04;;;;;;;;;;;;;;;9.90;57.75;94182.84;4938360;28;19949;-71
2023/09/22 05:14:30;;;;;;;;;;;;;;;10.00;57.08;94192.22;4924323;28;19943;-71
2023/09/22 05:16:55;;;;;;;;;;;;;;;9.95;57.82;94182.19;4934900;28;20009;-71
2023/09/22 05:19:20;;;;;;;;;;;;;;;10.26;57.80;94195.84;4954017;28;20024;-72
2023/09/22 05:21:45;;;;;;;;;;;;;;;10.36;57.16;94189.03;4933516;28;20568;-71
2023/09/22 05:24:11;;;;;;;;;;;;;;;10.31;58.82;94194.19;4935096;28;20008;-71
2023/09/22 05:26:37;;;;;;;;;;;;;;;10.48;56.94;94170.56;4954321;28;19952;-71
2023/09/22 05:29:03;;;;;;;;;;;;;;;9.65;57.06;94180.84;4959486;28;19986;-71
2023/09/22 05:31:28;;;;;;;;;;;;;;;10.20;57.81;94189.53;4954837;28;20054;-71
2023/09/22 05:33:55;;;;;;;;;;;;;;;10.30;57.26;94189.06;4957801;28;20510;-71
2023/09/22 05:36:20;;;;;;;;;;;;;;;10.39;56.49;94182.47;4959266;28;20002;-71
2023/09/22 05:38:45;;;;;;;;;;;;;;;10.40;57.62;94189.41;4959511;28;20066;-71
2023/09/22 05:41:11;;;;;;;;;;;;;;;10.47;56.51;94195.53;4957572;28;20001;-71
2023/09/22 05:43:36;;;;;;;;;;;;;;;10.36;56.93;94181.06;4960725;28;19998;-71
2023/09/22 05:46:01;;;;;;;;;;;;;;;10.48;57.20;94191.84;4956983;28;19971;-72
2023/09/22 05:48:26;;;;;;;;;;;;;;;10.82;55.51;94190.84;4962728;28;20043;-72
2023/09/22 05:50:59;;;;;;;;;;;;;;;10.84;54.59;94181.59;4963308;28;20057;-72
2023/09/22 05:53:27;;;;;;;;;;;;;;;10.91;54.44;94197.53;4955260;28;19968;-71
2023/09/22 05:56:08;;;;;;;;;;;;;;;10.77;54.94;94196.81;4951919;28;20090;-72
2023/09/22 05:58:34;;;;;;;;;;;;;;;10.94;53.95;94198.94;4956899;28;19941;-73
2023/09/22 06:01:06;;;;;;;;;;;;;;;9.20;60.16;94205.41;4964700;28;20044;-72
2023/09/22 06:03:31;;;;;;;;;;;;;;;10.03;57.62;94205.91;4948565;28;19948;-73
2023/09/22 06:05:57;;;;;;;;;;;;;;;9.17;59.54;94219.06;4951280;28;20455;-73
2023/09/22 06:08:22;;;;;;;;;;;;;;;9.65;58.61;94209.28;4948817;28;20441;-73
2023/09/22 06:10:47;;;;;;;;;;;;;;;10.27;56.83;94179.66;4950873;28;20403;-73
2023/09/22 06:13:13;;;;;;;;;;;;;;;9.71;57.98;94195.16;4955017;28;20627;-72
2023/09/22 06:15:38;;;;;;;;;;;;;;;9.81;58.41;94203.50;4961104;28;19981;-73
2023/09/22 06:18:04;;;;;;;;;;;;;;;10.29;56.23;94193.56;4950656;28;19997;-72
2023/09/22 06:20:30;;;;;;;;;;;;;;;10.42;56.09;94199.84;4948591;28;19980;-72
2023/09/22 06:22:55;;;;;;;;;;;;;;;10.61;55.42;94201.59;4943002;28;19974;-72
2023/09/22 06:25:20;;;;;;;;;;;;;;;10.82;55.52;94196.16;4947264;28;20449;-73
2023/09/22 06:27:46;;;;;;;;;;;;;;;10.79;54.54;94201.91;4950332;28;19994;-73
2023/09/22 06:30:11;;;;;;;;;;;;;;;10.53;58.46;94203.69;4948205;28;20123;-72
2023/09/22 06:32:40;;;;;;;;;;;;;;;10.61;55.32;94206.94;4949201;28;19967;-72
2023/09/22 06:35:09;;;;;;;;;;;;;;;10.33;59.34;94216.06;4948189;28;19971;-73
2023/09/22 06:37:36;;;;;;;;;;;;;;;10.49;58.08;94212.13;4945310;28;19971;-72
2023/09/22 06:40:01;;;;;;;;;;;;;;;10.22;57.65;94209.56;4945190;28;19972;-72
2023/09/22 06:42:26;;;;;;;;;;;;;;;10.13;56.98;94204.69;4926441;29;20029;-72
2023/09/22 06:44:52;;;;;;;;;;;;;;;10.26;57.13;94215.25;4927910;28;20040;-72
2023/09/22 06:47:17;;;;;;;;;;;;;;;10.65;58.40;94241.09;4926044;28;21199;-72
2023/09/22 06:49:42;;;;;;;;;;;;;;;10.26;58.73;94260.47;4927374;28;20024;-73
2023/09/22 06:52:08;;;;;;;;;;;;;;;10.07;57.62;94259.53;4929135;28;20381;-73
2023/09/22 06:54:33;;;;;;;;;;;;;;;10.43;57.66;94262.66;4927579;28;19954;-73
2023/09/22 06:57:01;;;;;;;;;;;;;;;10.85;56.03;94244.47;4925867;28;20491;-73
2023/09/22 06:59:26;;;;;;;;;;;;;;;10.78;56.20;94262.31;4928901;28;19955;-73
2023/09/22 07:01:52;;;;;;;;;;;;;;;10.27;57.13;94258.66;4943557;28;19999;-73
2023/09/22 07:04:19;;;;;;;;;;;;;;;10.18;59.46;94260.72;4943704;28;20057;-73
2023/09/22 07:06:44;;;;;;;;;;;;;;;10.38;56.77;94249.19;4945384;28;19954;-73
2023/09/22 07:09:11;;;;;;;;;;;;;;;10.45;56.66;94247.31;4945187;28;20008;-73
2023/09/22 07:11:40;;;;;;;;;;;;;;;10.50;56.98;94252.81;4944893;28;20552;-73
2023/09/22 07:14:05;;;;;;;;;;;;;;;10.94;57.01;94249.53;4943348;28;20335;-73
2023/09/22 07:16:32;;;;;;;;;;;;;;;11.25;55.73;94259.41;4941158;28;20514;-73
2023/09/22 07:18:57;;;;;;;;;;;;;;;11.23;55.47;94255.34;4945261;28;19946;-73
2023/09/22 07:21:25;;;;;;;;;;;;;;;11.46;54.66;94253.94;4943703;28;20346;-72
2023/09/22 07:23:50;;;;;;;;;;;;;;;11.64;53.21;94254.00;4944554;28;20005;-73
2023/09/22 07:26:15;;;;;;;;;;;;;;;11.46;53.75;94265.41;4944423;28;19937;-73
2023/09/22 07:28:40;;;;;;;;;;;;;;;11.63;53.66;94270.22;4944070;28;20527;-72
2023/09/22 07:31:10;;;;;;;;;;;;;;;11.68;54.42;94274.88;4945515;28;20484;-72
2023/09/22 07:33:36;;;;;;;;;;;;;;;11.90;53.44;94268.13;4944389;28;19973;-70
2023/09/22 07:36:01;;;;;;;;;;;;;;;11.85;53.94;94262.66;4945041;28;19954;-72
2023/09/22 07:38:27;;;;;;;;;;;;;;;11.92;53.11;94272.41;4942738;28;19957;-72
2023/09/22 07:40:52;;;;;;;;;;;;;;;12.14;52.54;94284.34;4948600;28;20416;-72
2023/09/22 07:43:18;;;;;;;;;;;;;;;12.22;51.90;94290.44;4947672;28;20534;-72
2023/09/22 07:45:44;;;;;;;;;;;;;;;11.42;53.40;94290.84;4943576;28;20175;-72
2023/09/22 07:48:09;;;;;;;;;;;;;;;11.11;54.87;94289.81;4942378;28;20517;-72
2023/09/22 07:50:35;;;;;;;;;;;;;;;11.48;53.92;94281.19;4926439;28;19982;-72
2023/09/22 07:53:00;;;;;;;;;;;;;;;11.94;53.20;94283.69;4935236;28;20049;-72
2023/09/22 07:55:25;;;;;;;;;;;;;;;11.83;52.51;94294.03;4946279;28;20378;-72
2023/09/22 07:57:51;;;;;;;;;;;;;;;9.88;58.58;94299.19;4945297;28;20830;-72
2023/09/22 08:00:18;;;;;;;;;;;;;;;10.96;55.52;94298.09;4944685;28;20398;-71
2023/09/22 08:02:45;;;;;;;;;;;;;;;11.33;54.98;94301.00;4944345;28;19944;-72
2023/09/22 08:05:15;;;;;;;;;;;;;;;9.58;59.01;94311.06;4947087;28;20064;-72
2023/09/22 08:07:42;;;;;;;;;;;;;;;11.17;55.32;94304.13;4945513;28;20668;-72
2023/09/22 08:10:08;;;;;;;;;;;;;;;10.98;55.59;94301.38;4943479;28;19992;-72
2023/09/22 08:12:33;;;;;;;;;;;;;;;11.74;54.36;94292.69;4945142;28;19965;-72
2023/09/22 08:14:58;;;;;;;;;;;;;;;12.02;52.22;94297.56;4944781;28;20423;-72
2023/09/22 08:17:24;;;;;;;;;;;;;;;11.43;54.51;94289.84;4944266;28;19969;-72
2023/09/22 08:19:50;;;;;;;;;;;;;;;12.15;52.27;94288.66;4945731;28;20248;-72
2023/09/22 08:22:15;;;;;;;;;;;;;;;12.45;51.16;94291.63;4945456;28;19939;-72
2023/09/22 08:24:40;;;;;;;;;;;;;;;12.52;51.06;94295.84;4945284;28;19968;-72
2023/09/22 08:27:06;;;;;;;;;;;;;;;12.19;51.84;94313.03;4951449;28;19977;-72
2023/09/22 08:29:31;;;;;;;;;;;;;;;12.50;50.90;94297.09;4945028;28;19965;-72
2023/09/22 08:31:58;;;;;;;;;;;;;;;12.71;50.98;94295.03;4945398;28;19982;-72
2023/09/22 08:34:23;;;;;;;;;;;;;;;12.84;50.00;94294.03;4944749;28;20624;-71
2023/09/22 08:36:48;;;;;;;;;;;;;;;13.20;49.04;94297.72;4946668;28;19964;-72
2023/09/22 08:39:15;;;;;;;;;;;;;;;12.11;50.33;94302.66;4952085;28;19941;-72
2023/09/22 08:41:40;;;;;;;;;;;;;;;12.50;49.83;94310.44;4955147;28;20066;-72
2023/09/22 08:44:05;;;;;;;;;;;;;;;12.64;50.12;94311.94;4952510;28;20034;-71
2023/09/22 08:46:32;;;;;;;;;;;;;;;12.45;49.69;94316.47;4961316;28;19939;-72
2023/09/22 08:48:57;;;;;;;;;;;;;;;12.68;49.18;94301.63;4951990;28;19975;-71
2023/09/22 08:51:22;;;;;;;;;;;;;;;12.64;47.85;94301.25;4949235;28;20498;-71
2023/09/22 08:53:47;;;;;;;;;;;;;;;12.93;48.61;94295.38;4950717;28;20302;-72
2023/09/22 08:56:14;;;;;;;;;;;;;;;11.49;51.99;94306.81;4942145;28;20025;-71
2023/09/22 08:58:39;;;;;;;;;;;;;;;12.23;50.55;94303.56;4928381;28;19945;-72
2023/09/22 09:01:04;;;;;;;;;;;;;;;11.77;50.74;94310.91;4926867;28;20214;-72
2023/09/22 09:03:32;;;;;;;;;;;;;;;12.58;49.20;94302.16;4930316;28;20005;-71
2023/09/22 09:06:07;;;;;;;;;;;;;;;11.56;50.48;94296.09;4927307;28;20430;-71
2023/09/22 09:08:34;;;;;;;;;;;;;;;11.94;50.41;94307.69;4927310;28;20401;-71
2023/09/22 09:11:03;;;;;;;;;;;;;;;12.67;48.18;94310.69;4928479;28;19953;-71
2023/09/22 09:13:28;;;;;;;;;;;;;;;12.13;50.07;94308.56;4941832;28;20052;-71
2023/09/22 09:15:54;;;;;;;;;;;;;;;11.46;50.64;94310.72;4950270;28;20079;-71
2023/09/22 09:18:20;;;;;;;;;;;;;;;12.89;48.56;94311.03;4949262;28;20125;-72
2023/09/22 09:20:47;;;;;;;;;;;;;;;13.48;46.57;94311.50;4950399;28;20021;-71
2023/09/22 09:23:13;;;;;;;;;;;;;;;13.46;46.32;94310.94;4949654;28;19979;-72
2023/09/22 09:25:39;;;;;;;;;;;;;;;14.05;44.82;94323.63;4949636;28;19958;-71
2023/09/22 09:28:04;;;;;;;;;;;;;;;12.69;47.96;94308.63;4951672;28;20282;-71
2023/09/22 09:30:31;;;;;;;;;;;;;;;13.95;46.43;94308.13;4948217;28;20009;-71
2023/09/22 09:33:09;;;;;;;;;;;;;;;12.92;45.95;94318.59;4948062;28;20006;-71
2023/09/22 09:35:35;;;;;;;;;;;;;;;13.12;46.87;94314.88;4949043;28;19992;-71
2023/09/22 09:38:02;;;;;;;;;;;;;;;13.65;46.11;94309.81;4948552;28;20113;-70
2023/09/22 09:40:27;;;;;;;;;;;;;;;13.08;48.15;94316.38;4949813;28;19960;-71
2023/09/22 09:42:52;;;;;;;;;;;;;;;12.41;48.38;94318.75;4950332;28;19978;-71
2023/09/22 09:45:18;;;;;;;;;;;;;;;13.54;46.83;94308.72;4948240;28;20299;-71
2023/09/22 09:47:44;;;;;;;;;;;;;;;14.11;45.34;94316.53;4948644;28;19984;-72
2023/09/22 09:50:11;;;;;;;;;;;;;;;13.67;43.08;94315.75;4948653;28;20383;-72
2023/09/22 09:52:37;;;;;;;;;;;;;;;14.06;43.32;94311.88;4949125;28;20025;-72
2023/09/22 09:55:02;;;;;;;;;;;;;;;13.65;43.34;94298.28;4948776;28;19943;-71
2023/09/22 09:57:28;;;;;;;;;;;;;;;13.68;43.48;94301.34;4945240;28;21148;-71
2023/09/22 09:59:53;;;;;;;;;;;;;;;14.41;41.78;94308.34;4947407;28;19937;-72
2023/09/22 10:02:20;;;;;;;;;;;;;;;14.81;43.51;94300.63;4947692;28;19995;-72
2023/09/22 10:04:45;;;;;;;;;;;;;;;14.82;41.19;94311.09;4946776;28;19966;-72
2023/09/22 10:07:10;;;;;;;;;;;;;;;13.58;42.69;94309.09;4948249;28;19964;-71
2023/09/22 10:09:36;;;;;;;;;;;;;;;12.91;42.55;94303.63;4948935;28;19968;-71
2023/09/22 10:12:01;;;;;;;;;;;;;;;13.86;40.51;94317.50;4946927;28;20043;-71
2023/09/22 10:14:46;;;;;;;;;;;;;;;13.11;42.48;94321.28;4947785;28;20000;-71
2023/09/22 10:17:18;;;;;;;;;;;;;;;13.01;44.43;94310.28;4946468;28;20132;-71
2023/09/22 10:19:44;;;;;;;;;;;;;;;12.91;44.44;94319.63;4947981;28;20478;-71
2023/09/22 10:22:13;;;;;;;;;;;;;;;11.85;47.58;94320.47;4946801;28;19940;-71
2023/09/22 10:24:38;;;;;;;;;;;;;;;12.91;44.62;94330.31;4945374;28;20010;-72
2023/09/22 10:27:11;;;;;;;;;;;;;;;12.93;44.38;94324.75;4946548;28;20072;-71
2023/09/22 10:29:43;;;;;;;;;;;;;;;12.73;44.63;94315.13;4947090;28;19993;-72
2023/09/22 10:32:26;;;;;;;;;;;;;;;12.62;44.64;94324.69;4945890;28;19962;-72
2023/09/22 10:34:54;;;;;;;;;;;;;;;12.71;43.86;94332.44;4946105;28;20499;-72
2023/09/22 10:37:20;;;;;;;;;;;;;;;11.96;46.95;94334.94;4947131;28;19958;-72
2023/09/22 10:39:48;;;;;;;;;;;;;;;11.90;46.48;94321.47;4946082;28;19957;-72
2023/09/22 10:42:14;;;;;;;;;;;;;;;12.60;45.74;94324.09;4927086;28;20474;-72
2023/09/22 10:44:56;;;;;;;;;;;;;;;12.78;45.60;94327.78;4924460;28;20115;-72
2023/09/22 10:47:21;;;;;;;;;;;;;;;12.25;46.48;94322.00;4927131;28;19938;-72
2023/09/22 10:49:47;;;;;;;;;;;;;;;12.71;45.51;94335.09;4928174;28;20022;-72
2023/09/22 10:52:14;;;;;;;;;;;;;;;12.80;45.72;94323.06;4929614;28;20028;-72
2023/09/22 10:54:42;;;;;;;;;;;;;;;12.59;46.13;94324.31;4946959;28;20531;-72
2023/09/22 10:57:10;;;;;;;;;;;;;;;12.12;46.50;94317.63;4947385;28;20038;-72
2023/09/22 10:59:36;;;;;;;;;;;;;;;12.45;45.87;94331.66;4948535;28;19940;-72
2023/09/22 11:02:02;;;;;;;;;;;;;;;11.81;47.40;94335.28;4945853;28;20425;-71
2023/09/22 11:04:42;;;;;;;;;;;;;;;12.55;44.08;94353.34;4943169;28;20068;-72
2023/09/22 11:07:09;;;;;;;;;;;;;;;12.56;43.81;94348.78;4945708;28;20453;-71
2023/09/22 11:09:34;;;;;;;;;;;;;;;13.21;43.20;94351.97;4947319;28;20092;-72
2023/09/22 11:12:00;;;;;;;;;;;;;;;12.98;44.15;94348.13;4944355;28;20312;-70
2023/09/22 11:14:25;;;;;;;;;;;;;;;12.96;43.75;94350.19;4934788;28;19988;-71
2023/09/22 11:16:50;;;;;;;;;;;;;;;13.55;41.10;94352.34;4949207;28;20007;-72
2023/09/22 11:19:15;;;;;;;;;;;;;;;14.07;38.97;94349.09;4955198;28;20013;-72
2023/09/22 11:21:41;;;;;;;;;;;;;;;12.87;41.02;94352.34;4931861;28;19957;-71
2023/09/22 11:24:07;;;;;;;;;;;;;;;12.74;43.05;94362.16;4931762;28;20054;-72
2023/09/22 11:26:39;;;;;;;;;;;;;;;13.11;42.00;94349.84;4955515;28;19938;-72
2023/09/22 11:29:04;;;;;;;;;;;;;;;12.57;41.58;94363.78;4957067;28;19970;-73
2023/09/22 11:31:32;;;;;;;;;;;;;;;13.79;39.01;94355.88;4951670;28;20196;-73
2023/09/22 11:34:01;;;;;;;;;;;;;;;14.17;38.57;94364.56;4957427;28;20458;-73
2023/09/22 11:36:27;;;;;;;;;;;;;;;14.76;37.59;94367.50;4957401;28;19995;-74
2023/09/22 11:38:52;;;;;;;;;;;;;;;14.92;37.20;94369.44;4966991;28;19971;-73
2023/09/22 11:41:18;;;;;;;;;;;;;;;13.51;38.32;94368.03;4941034;28;20010;-73
2023/09/22 11:43:46;;;;;;;;;;;;;;;13.62;38.46;94373.63;4935486;28;20049;-73
2023/09/22 11:46:12;;;;;;;;;;;;;;;13.53;40.42;94375.81;4962488;28;20069;-73
2023/09/22 11:48:50;;;;;;;;;;;;;;;13.25;40.51;94369.19;4970272;28;19954;-74
2023/09/22 11:51:15;;;;;;;;;;;;;;;13.14;39.42;94368.09;4961448;28;19944;-73
2023/09/22 11:53:41;;;;;;;;;;;;;;;13.85;39.48;94370.22;4966793;28;20014;-73
2023/09/22 11:56:06;;;;;;;;;;;;;;;14.43;37.55;94399.97;4950593;28;23773;-74
2023/09/22 11:58:31;;;;;;;;;;;;;;;14.01;37.90;94365.25;4921865;28;20405;-73
2023/09/22 12:00:58;;;;;;;;;;;;;;;15.19;38.48;94362.72;4919337;28;20456;-73
2023/09/22 12:03:23;;;;;;;;;;;;;;;15.22;36.97;94368.44;4921121;29;20012;-73
2023/09/22 12:05:48;;;;;;;;;;;;;;;15.85;35.38;94367.72;4929467;29;20127;-73
2023/09/22 12:08:14;;;;;;;;;;;;;;;15.92;33.79;94367.59;4932057;28;20482;-73
2023/09/22 12:10:40;;;;;;;;;;;;;;;16.42;34.48;94361.66;4958792;28;19930;-73
2023/09/22 12:13:06;;;;;;;;;;;;;;;16.83;32.04;94356.03;4968818;28;19922;-74
2023/09/22 12:15:31;;;;;;;;;;;;;;;16.98;32.78;94352.72;4957513;28;20288;-74
2023/09/22 12:17:56;;;;;;;;;;;;;;;17.45;33.06;94359.50;4949295;28;19968;-74
2023/09/22 12:20:22;;;;;;;;;;;;;;;15.51;34.22;94364.97;4956125;28;19926;-73
2023/09/22 12:22:47;;;;;;;;;;;;;;;15.84;36.06;94347.31;4956557;28;19929;-74
2023/09/22 12:25:12;;;;;;;;;;;;;;;16.66;32.46;94356.91;4964525;28;19960;-73
2023/09/22 12:27:37;;;;;;;;;;;;;;;16.85;32.92;94349.34;4971661;28;20580;-73
2023/09/22 12:30:03;;;;;;;;;;;;;;;17.28;32.57;94340.75;4967256;28;19930;-73
2023/09/22 12:32:28;;;;;;;;;;;;;;;16.60;32.40;94341.75;4961540;28;19955;-74
2023/09/22 12:34:54;;;;;;;;;;;;;;;16.89;32.80;94334.34;4954460;28;20743;-74
2023/09/22 12:37:19;;;;;;;;;;;;;;;17.10;31.84;94331.09;4958324;28;20015;-74
2023/09/22 12:39:44;;;;;;;;;;;;;;;15.84;34.46;94335.78;4956686;28;19975;-72
2023/09/22 12:42:10;;;;;;;;;;;;;;;16.24;35.37;94336.66;4945768;28;19930;-72
2023/09/22 12:44:37;;;;;;;;;;;;;;;18.38;31.68;94332.56;4951464;28;20215;-73